Nearby METAR Reports

 

EGQL - Leuchars Raf, United Kingdom
Distance from station: SW 17km
Updated: 21/06/2021 17:50
Clear
Clear
 Wind from SSE
Wind: SSE 6 mph , 9 km/h
Temperature: 15°C
Dew Point: 6°C
Humidity: 55%
Barometer: 1019 hPa
Summary: Clear
Visibility: greater than 7 miles , 10 km
2021/06/21 15:50 EGQL 211550Z 16005KT CAVOK 15/06 Q1019 BLU
EGPN - Dundee/Riverside, United Kingdom
Distance from station: WSW 20km
Updated: 21/06/2021 18:20
Few Clouds
Few Clouds
 Wind from E
Wind: E 8 mph , 13 km/h
Temperature: 15°C
Dew Point: 8°C
Humidity: 63%
Barometer: 1019 hPa
Clouds: Few Clouds
Visibility: 6 miles , 10 km
Cloud details: Few Clouds 1463 m
2021/06/21 16:20 EGPN 211620Z 10007KT 9999 FEW048 15/08 Q1019
 
EGPH - Edinburgh Airpor, United Kingdom
Distance from station: SSW 74km
Updated: 21/06/2021 18:20
Clear
Clear
 Wind from varies
Wind: varies 3 mph , 6 km/h
Temperature: 16°C
Dew Point: 5°C
Humidity: 48%
Barometer: 1019 hPa
Summary: Clear
Visibility: greater than 7 miles , 10 km
2021/06/21 16:20 EGPH 211620Z VRB03KT CAVOK 16/05 Q1019
EGPD - Aberdeen/Dyce, United Kingdom
Distance from station: NNE 82km
Updated: 21/06/2021 18:20
Mostly cloudy
Mostly cloudy
 Wind from N
Wind: N 13 mph , 20 km/h
Temperature: 14°C
Dew Point: 6°C
Humidity: 59%
Barometer: 1019 hPa
Clouds: Mostly cloudy
Visibility: 6 miles , 10 km
Cloud details: Partly cloudy 945 m
Mostly cloudy 1189 m
2021/06/21 16:20 EGPD 211620Z AUTO 35011KT 9999 SCT031 BKN039 14/06 Q1019 NOSIG